Friday, July 25, 2014, 3:57 PM EDT

KW99, Petersburg, Grant County Airport

Location: Petersburg, WV, United States Lat: 38.983
Local Time: 3:57 PM EDT (19:57 GMT) Lon: -79.133
Time Zone: US/Eastern Elev: 961 ft

Show me the last for .
Show Decoded

2014-07-25 15:35 METAR KW99 251935Z AUTO 09003KT 10SM SCT060 27/08 A3001 RMK AO2 T02730076 =
2014-07-25 15:15 METAR KW99 251915Z AUTO 13008KT 10SM SCT060 27/08 A3000 RMK AO2 T02690078 =
2014-07-25 14:35 METAR KW99 251835Z AUTO 00000KT 10SM SCT060 27/09 A3002 RMK AO2 T02650085 =
2014-07-25 14:15 METAR KW99 251815Z AUTO 20003KT 10SM CLR 27/09 A3002 RMK AO2 T02660085 =
2014-07-25 13:55 METAR KW99 251755Z AUTO 34003KT 10SM CLR 26/09 A3004 RMK AO2 T02630088 10263
                 20129 =
2014-07-25 13:35 METAR KW99 251735Z AUTO 18006KT 10SM CLR 26/10 A3005 RMK AO2 T02580096 =
2014-07-25 13:15 METAR KW99 251715Z AUTO 00000KT 10SM CLR 25/10 A3006 RMK AO2 T02530097 =
2014-07-25 12:55 METAR KW99 251655Z AUTO 13004KT 10SM CLR 26/10 A3007 RMK AO2 T02590103 =
2014-07-25 12:35 METAR KW99 251635Z AUTO 05005KT 10SM CLR 25/10 A3007 RMK AO2 T02500097 =
2014-07-25 12:15 METAR KW99 251615Z AUTO 13004KT 10SM CLR 24/09 A3010 RMK AO2 T02390092 =
2014-07-25 11:55 METAR KW99 251555Z AUTO 06003KT 10SM CLR 24/09 A3010 RMK AO2 T02390092 =
2014-07-25 11:35 METAR KW99 251535Z AUTO 10003KT 10SM CLR 23/10 A3010 RMK AO2 T02290095 =
2014-07-25 11:15 METAR KW99 251515Z AUTO 00000KT 10SM CLR 22/11 A3011 RMK AO2 T02220109 =
2014-07-25 10:55 METAR KW99 251455Z AUTO 09003KT 10SM CLR 21/10 A3011 RMK AO2 T02100104 =
2014-07-25 10:35 METAR KW99 251435Z AUTO 00000KT 10SM CLR 20/11 A3012 RMK AO2 T01990109 =
2014-07-25 10:15 METAR KW99 251415Z AUTO 00000KT 10SM CLR 17/12 A3013 RMK AO2 T01670124 =
2014-07-25 09:55 METAR KW99 251355Z AUTO 00000KT 10SM CLR 16/13 A3013 RMK AO2 T01570134 =
2014-07-25 09:35 METAR KW99 251335Z AUTO 00000KT 10SM BKN003 14/12 A3014 RMK AO2 T01410124 =
2014-07-25 09:15 METAR KW99 251315Z AUTO 07003KT 5SM BR OVC003 14/12 A3015 RMK AO2 T01350117 =
2014-07-25 08:55 METAR KW99 251255Z AUTO 00000KT 3SM BR OVC001 13/12 A3015 RMK AO2 T01330116 =
2014-07-25 08:35 METAR KW99 251235Z AUTO 00000KT 2 1/2SM BR OVC001 13/11 A3015 RMK AO2 T01300113
                 =
2014-07-25 08:15 METAR KW99 251215Z AUTO 00000KT 1 1/4SM BR OVC001 13/12 A3014 RMK AO2 T01320115
                 =
2014-07-25 07:55 METAR KW99 251155Z AUTO 00000KT M1/4SM FG OVC001 13/11 A3013 RMK AO2 70004
                 T01300113 10144 20106 =
2014-07-25 07:35 METAR KW99 251135Z AUTO 00000KT M1/4SM FG OVC001 13/11 A3012 RMK AO2 T01250107 =
2014-07-25 07:15 METAR KW99 251115Z AUTO 00000KT M1/4SM FG OVC001 12/10 A3012 RMK AO2 T01200103 =
2014-07-25 06:55 METAR KW99 251055Z AUTO 00000KT M1/4SM FG OVC001 12/10 A3011 RMK AO2 T01200103 =
2014-07-25 06:35 METAR KW99 251035Z AUTO 00000KT 1/2SM FG OVC001 12/10 A3010 RMK AO2 T01210104 =
2014-07-25 06:15 METAR KW99 251015Z AUTO 00000KT 4SM BR OVC001 12/10 A3009 RMK AO2 T01150098 =
2014-07-25 05:55 METAR KW99 250955Z AUTO 00000KT 1/4SM FG OVC001 11/10 A3009 RMK AO2 T01130096 =
2014-07-25 05:35 METAR KW99 250935Z AUTO 00000KT M1/4SM FG OVC001 12/10 A3009 RMK AO2 LTG DSNT S
                 T01150098 =
2014-07-25 05:15 METAR KW99 250915Z AUTO 00000KT 1/2SM FG OVC001 11/09 A3008 RMK AO2 T01080091 =
2014-07-25 04:55 METAR KW99 250855Z AUTO 00000KT 1 1/4SM BR OVC001 11/09 A3007 RMK AO2 T01090091
                 =
2014-07-25 04:35 METAR KW99 250835Z AUTO 00000KT 1SM BR BKN001 11/10 A3007 RMK AO2 T01120095 =
2014-07-25 04:15 METAR KW99 250815Z AUTO 00000KT 1 1/2SM BR VV007 12/10 A3007 RMK AO2 VIS 3/4V2
                 1/2 T01200102 =
2014-07-25 03:55 METAR KW99 250755Z AUTO 00000KT 2SM BR CLR 12/11 A3007 RMK AO2 VIS 1 1/4V5
                 T01240106 =
2014-07-25 03:35 METAR KW99 250735Z AUTO 00000KT 4SM BR CLR 13/11 A3006 RMK AO2 T01250106 =
2014-07-25 03:15 METAR KW99 250715Z AUTO 00000KT 1/4SM FG VV002 13/11 A3006 RMK AO2 T01310112 =
2014-07-25 02:55 METAR KW99 250655Z AUTO 00000KT 1 1/2SM BR SCT065 14/12 A3006 RMK AO2 T01370118
                 =
2014-07-25 02:35 METAR KW99 250635Z AUTO 00000KT 4SM BR BKN065 14/12 A3006 RMK AO2 T01360117 =
2014-07-25 02:15 METAR KW99 250615Z AUTO 00000KT 5SM BR SCT065 14/12 A3005 RMK AO2 T01360117 =
2014-07-25 01:55 METAR KW99 250555Z AUTO 00000KT 2SM BR SCT065 15/13 A3005 RMK AO2 T01450125
                 10229 20143 402400143 =
2014-07-25 01:35 METAR KW99 250535Z AUTO 00000KT 3SM BR CLR 15/13 A3005 RMK AO2 T01480127 =
2014-07-25 01:15 METAR KW99 250515Z AUTO 00000KT 5SM BR SCT070 15/13 A3006 RMK AO2 T01500128 =
2014-07-25 00:55 METAR KW99 250455Z AUTO 00000KT 7SM SCT060 16/13 A3006 RMK AO2 T01550131 =
2014-07-25 00:35 METAR KW99 250435Z AUTO 00000KT 7SM BKN060 16/13 A3006 RMK AO2 T01560130 =
2014-07-25 00:15 METAR KW99 250415Z AUTO 00000KT 7SM BKN060 16/14 A3005 RMK AO2 T01620136 =
2014-07-24 23:55 METAR KW99 250355Z AUTO 00000KT 10SM BKN060 16/13 A3005 RMK AO2 T01640134 =
2014-07-24 23:35 METAR KW99 250335Z AUTO 29003KT 10SM OVC060 17/13 A3003 RMK AO2 T01650133 =
2014-07-24 23:15 METAR KW99 250315Z AUTO 00000KT 10SM SCT060 BKN065 17/14 A3002 RMK AO2 T01660135
                 =
2014-07-24 22:55 METAR KW99 250255Z AUTO 29004KT 10SM BKN060 17/14 A3002 RMK AO2 T01670136 =
2014-07-24 22:35 METAR KW99 250235Z AUTO 30004KT 10SM BKN060 17/14 A3001 RMK AO2 T01740139 =
2014-07-24 22:15 METAR KW99 250215Z AUTO 30006KT 10SM BKN060 17/14 A3000 RMK AO2 T01710137 =
2014-07-24 21:55 METAR KW99 250155Z AUTO 00000KT 10SM SCT060 18/14 A3000 RMK AO2 T01800138 =
2014-07-24 21:35 METAR KW99 250135Z AUTO 28003KT 10SM SCT060 18/13 A2999 RMK AO2 T01810133 =
2014-07-24 21:15 METAR KW99 250115Z AUTO 29003KT 10SM SCT060 20/12 A2998 RMK AO2 T01950124 =
2014-07-24 20:55 METAR KW99 250055Z AUTO 00000KT 10SM SCT060 20/13 A2997 RMK AO2 T01990130 =
2014-07-24 20:35 METAR KW99 250035Z AUTO 28003KT 10SM BKN060 21/15 A2997 RMK AO2 T02050145 =
2014-07-24 20:15 METAR KW99 250015Z AUTO 26003KT 7SM SCT060 21/17 A2996 RMK AO2 T02140168 =
2014-07-24 19:55 METAR KW99 242355Z AUTO 00000KT 10SM CLR 23/16 A2996 RMK AO2 T02300156 10240
                 20196 =
2014-07-24 19:35 METAR KW99 242335Z AUTO 00000KT 10SM CLR 23/16 A2995 RMK AO2 T02340158 =
2014-07-24 19:15 METAR KW99 242315Z AUTO 25003KT 10SM SCT050 SCT070 24/15 A2995 RMK AO2 T02360151
                 =
2014-07-24 18:35 METAR KW99 242235Z AUTO 23004KT 10SM SCT110 23/15 A2995 RMK AO2 T02310149 =
2014-07-24 18:15 METAR KW99 242215Z AUTO 27003KT 10SM SCT110 23/14 A2995 RMK AO2 T02320143 =
2014-07-24 17:55 METAR KW99 242155Z AUTO 00000KT 10SM CLR 23/14 A2994 RMK AO2 T02290143 =
2014-07-24 17:35 METAR KW99 242135Z AUTO 00000KT 10SM SCT043 SCT050 23/14 A2994 RMK AO2 T02250142
                 =
2014-07-24 17:15 METAR KW99 242115Z AUTO 19006KT 10SM SCT045 SCT050 23/15 A2995 RMK AO2 T02290151
                 =
2014-07-24 16:55 METAR KW99 242055Z AUTO 14004KT 10SM SCT050 SCT120 22/15 A2995 RMK AO2 T02240145
                 =
2014-07-24 16:35 METAR KW99 242035Z AUTO 00000KT 10SM SCT050 OVC120 22/15 A2996 RMK AO2 T02180145
                 =
2014-07-24 16:15 METAR KW99 242015Z AUTO 00000KT 7SM OVC050 21/15 A2996 RMK AO2 LTG DSNT SE
                 T02110148 =

Support USWX by starting your Amazon purchase here.